Time;durP1;ratioP1;P1;durP2;ratioP2;P2;SDS_P1;SDS_P2;PMS_P1;PMS_P2;Temp;Humidity;BMP_temperature;BMP_pressure;BME280_temperature;BME280_humidity;BME280_pressure;Samples;Min_cycle;Max_cycle;Signal;HPM_P1;HPM_P2
2022/07/22 00:01:21;;;;;;;8.05;3.72;;;;;;;33.06;31.50;100829.59;4884290;29;20522;-81
2022/07/22 00:03:50;;;;;;;2.25;1.63;;;;;;;33.03;32.22;100835.09;4891297;29;20052;-78
2022/07/22 00:06:18;;;;;;;7.57;1.63;;;;;;;33.06;32.09;100831.44;4882974;29;20053;-77
2022/07/22 00:08:47;;;;;;;3.83;1.63;;;;;;;32.96;32.57;100831.09;4881595;29;20052;-80
2022/07/22 00:11:15;;;;;;;3.13;1.60;;;;;;;32.79;32.68;100829.50;4879879;29;20060;-85
2022/07/22 00:13:46;;;;;;;6.07;1.83;;;;;;;32.69;33.00;100825.69;4873732;28;20449;-83
2022/07/22 00:16:15;;;;;;;5.77;1.67;;;;;;;32.70;32.95;100833.59;4867688;29;20042;-81
2022/07/22 00:18:44;;;;;;;2.88;1.40;;;;;;;32.77;32.55;100828.72;4869124;29;20057;-82
2022/07/22 00:21:12;;;;;;;4.03;1.33;;;;;;;32.79;32.23;100823.28;4872773;29;20057;-77
2022/07/22 00:23:41;;;;;;;3.50;1.50;;;;;;;32.80;32.93;100830.34;4881441;29;20064;-84
2022/07/22 00:26:09;;;;;;;5.85;1.60;;;;;;;32.75;33.59;100828.81;4871308;29;20573;-80
2022/07/22 00:28:38;;;;;;;2.90;1.60;;;;;;;32.76;32.96;100824.34;4874224;29;20057;-82
2022/07/22 00:31:08;;;;;;;3.72;1.40;;;;;;;32.78;32.46;100821.53;4868259;29;20522;-82
2022/07/22 00:33:37;;;;;;;4.10;1.70;;;;;;;32.73;32.32;100825.41;4857243;29;20525;-83
2022/07/22 00:36:06;;;;;;;3.47;1.70;;;;;;;32.67;32.44;100817.72;4871436;29;20101;-80
2022/07/22 00:38:34;;;;;;;3.95;1.58;;;;;;;32.62;32.48;100817.16;4877371;29;20396;-85
2022/07/22 00:41:03;;;;;;;4.13;1.50;;;;;;;32.50;33.11;100812.50;4879764;29;20562;-78
2022/07/22 00:43:54;;;;;;;10.05;1.85;;;;;;;32.26;33.01;100810.38;4869450;29;20591;-81
2022/07/22 00:46:25;;;;;;;5.35;1.50;;;;;;;32.22;32.74;100813.34;4874762;29;20057;-80
2022/07/22 00:48:53;;;;;;;6.23;2.33;;;;;;;32.13;33.41;100815.59;4871744;29;20068;-80
2022/07/22 00:51:23;;;;;;;3.22;2.38;;;;;;;32.10;33.46;100806.91;4879662;29;20352;-83
2022/07/22 00:53:52;;;;;;;6.25;1.70;;;;;;;32.08;33.30;100811.50;4872497;29;20053;-83
2022/07/22 00:56:21;;;;;;;5.15;1.45;;;;;;;32.07;33.55;100804.41;4883039;29;20053;-83
2022/07/22 00:58:51;;;;;;;4.05;1.70;;;;;;;32.05;33.88;100800.97;4873496;29;20491;-79
2022/07/22 01:01:21;;;;;;;6.28;1.48;;;;;;;32.03;34.12;100800.22;4877975;29;20115;-82
2022/07/22 01:03:51;;;;;;;4.50;1.52;;;;;;;31.98;33.82;100794.25;4879277;29;20554;-84
2022/07/22 01:06:19;;;;;;;3.47;1.52;;;;;;;31.88;33.52;100799.25;4869444;29;20399;-81
2022/07/22 01:08:48;;;;;;;4.05;1.77;;;;;;;31.81;34.05;100795.22;4875653;29;20112;-77
2022/07/22 01:11:18;;;;;;;5.85;1.60;;;;;;;31.74;33.70;100794.72;4872685;29;20069;-78
2022/07/22 01:13:47;;;;;;;4.03;1.50;;;;;;;31.68;33.91;100789.72;4888984;29;20053;-81
2022/07/22 01:16:17;;;;;;;3.63;1.40;;;;;;;31.60;34.71;100790.16;4885001;29;20124;-79
2022/07/22 01:18:47;;;;;;;5.13;1.70;;;;;;;31.48;34.93;100783.72;4879469;29;20057;-76
2022/07/22 01:21:20;;;;;;;4.50;1.90;;;;;;;31.39;34.74;100792.25;4889608;29;20533;-81
2022/07/22 01:23:49;;;;;;;5.50;1.85;;;;;;;31.35;35.22;100782.66;4885031;29;20064;-82
2022/07/22 01:26:18;;;;;;;3.20;1.40;;;;;;;31.30;35.37;100784.75;4893717;29;20060;-80
2022/07/22 01:28:47;;;;;;;5.82;1.42;;;;;;;31.23;35.32;100780.69;4892782;29;20148;-83
2022/07/22 01:31:15;;;;;;;3.60;1.30;;;;;;;31.14;35.38;100782.06;4892308;29;20076;-81
2022/07/22 01:33:44;;;;;;;5.75;1.80;;;;;;;30.99;36.07;100783.78;4890121;29;20108;-78
2022/07/22 01:36:13;;;;;;;2.75;1.48;;;;;;;30.90;35.78;100776.28;4888519;29;20044;-79
2022/07/22 01:38:43;;;;;;;5.85;1.70;;;;;;;30.87;35.92;100784.47;4888773;29;20421;-80
2022/07/22 01:41:11;;;;;;;2.88;1.70;;;;;;;30.80;35.76;100783.06;4892880;29;20073;-81
2022/07/22 01:43:40;;;;;;;3.53;1.30;;;;;;;30.71;35.75;100780.88;4884204;29;20049;-79
2022/07/22 01:46:09;;;;;;;5.22;1.77;;;;;;;30.65;36.33;100779.41;4892839;29;20044;-81
2022/07/22 01:48:37;;;;;;;2.75;1.30;;;;;;;30.56;36.18;100782.56;4890442;29;20060;-82
2022/07/22 01:51:07;;;;;;;3.83;1.60;;;;;;;30.51;36.27;100788.16;4890596;29;20554;-81
2022/07/22 01:53:35;;;;;;;4.88;1.67;;;;;;;30.41;36.70;100776.25;4882451;29;20079;-81
2022/07/22 01:56:06;;;;;;;4.65;1.60;;;;;;;30.33;37.17;100782.00;4890303;29;20191;-79
2022/07/22 01:58:34;;;;;;;2.15;1.60;;;;;;;30.13;37.75;100782.16;4890241;29;20407;-83
2022/07/22 02:01:03;;;;;;;2.00;1.40;;;;;;;30.06;37.45;100784.25;4894552;29;20048;-81
2022/07/22 02:03:31;;;;;;;4.30;1.73;;;;;;;30.04;37.65;100783.47;4891441;29;20048;-80
2022/07/22 02:06:00;;;;;;;5.20;1.75;;;;;;;30.02;37.37;100782.69;4893117;29;20056;-81
2022/07/22 02:08:29;;;;;;;3.40;1.35;;;;;;;29.96;37.14;100786.56;4890826;29;20482;-81
2022/07/22 02:10:57;;;;;;;8.60;1.70;;;;;;;29.91;37.30;100793.03;4888905;29;20108;-82
2022/07/22 02:13:27;;;;;;;6.68;1.75;;;;;;;29.88;36.67;100795.88;4888550;29;20060;-80
2022/07/22 02:15:56;;;;;;;4.22;1.50;;;;;;;29.81;36.45;100793.50;4891384;29;20048;-82
2022/07/22 02:18:25;;;;;;;5.88;1.73;;;;;;;29.70;36.65;100792.31;4893392;29;20573;-85
2022/07/22 02:20:53;;;;;;;4.13;1.50;;;;;;;29.63;36.94;100797.91;4888537;29;20053;-78
2022/07/22 02:23:22;;;;;;;4.55;1.63;;;;;;;29.54;37.29;100802.84;4891555;29;20057;-82
2022/07/22 02:25:51;;;;;;;3.90;1.52;;;;;;;29.42;37.13;100799.84;4890783;29;20092;-79
2022/07/22 02:28:19;;;;;;;2.67;1.50;;;;;;;29.29;37.41;100798.69;4893893;29;20127;-79
2022/07/22 02:30:50;;;;;;;6.22;1.50;;;;;;;29.09;37.55;100802.34;4887473;29;20100;-80
2022/07/22 02:33:19;;;;;;;3.25;1.45;;;;;;;28.91;37.61;100803.13;4893215;29;20052;-81
2022/07/22 02:35:47;;;;;;;4.00;1.38;;;;;;;28.83;37.44;100806.16;4889677;29;20060;-80
2022/07/22 02:38:16;;;;;;;3.58;1.52;;;;;;;28.76;37.80;100812.69;4891554;29;20053;-83
2022/07/22 02:40:44;;;;;;;2.72;1.63;;;;;;;28.59;37.52;100795.69;4883443;29;20044;-81
2022/07/22 02:43:13;;;;;;;4.80;1.45;;;;;;;28.58;37.78;100812.59;4886784;29;20148;-80
2022/07/22 02:45:41;;;;;;;3.63;1.60;;;;;;;28.50;38.67;100812.06;4891323;29;20536;-80
2022/07/22 02:48:11;;;;;;;3.90;1.48;;;;;;;28.42;38.68;100824.81;4884683;29;20057;-82
2022/07/22 02:50:55;;;;;;;3.17;1.48;;;;;;;28.31;39.01;100824.41;4892619;29;20052;-81
2022/07/22 02:53:23;;;;;;;3.45;1.67;;;;;;;28.18;39.19;100826.75;4884213;29;20498;-81
2022/07/22 02:55:52;;;;;;;4.13;1.65;;;;;;;28.08;39.32;100826.25;4890846;29;20068;-83
2022/07/22 02:58:20;;;;;;;4.22;1.40;;;;;;;27.97;39.82;100828.53;4883220;29;20053;-82
2022/07/22 03:00:49;;;;;;;4.13;1.40;;;;;;;27.76;40.43;100833.78;4887607;29;20049;-82
2022/07/22 03:03:20;;;;;;;4.43;1.80;;;;;;;27.51;40.64;100838.31;4877880;29;20049;-80
2022/07/22 03:05:48;;;;;;;5.28;1.70;;;;;;;27.29;40.78;100835.66;4876774;29;20069;-79
2022/07/22 03:08:17;;;;;;;4.70;1.40;;;;;;;27.12;40.99;100838.91;4882346;29;20486;-86
2022/07/22 03:10:46;;;;;;;4.43;1.45;;;;;;;26.85;41.56;100841.69;5035254;23;20055;-69
2022/07/22 03:13:15;;;;;;;4.18;1.35;;;;;;;26.62;41.97;100833.69;4880486;29;20048;-71
2022/07/22 03:15:43;;;;;;;6.13;1.60;;;;;;;26.53;41.75;100848.16;4886619;29;20053;-68
2022/07/22 03:18:12;;;;;;;3.72;1.50;;;;;;;26.34;42.35;100850.56;4895947;29;20419;-70
2022/07/22 03:20:42;;;;;;;4.07;1.45;;;;;;;26.15;42.58;100845.00;4888662;29;20172;-71
2022/07/22 03:23:10;;;;;;;5.38;1.58;;;;;;;26.00;42.84;100851.72;4883019;29;20437;-70
2022/07/22 03:25:39;;;;;;;4.03;1.60;;;;;;;25.81;43.25;100850.53;4887037;29;20159;-70
2022/07/22 03:28:08;;;;;;;3.15;1.42;;;;;;;25.60;43.93;100846.78;4890893;29;20079;-69
2022/07/22 03:30:37;;;;;;;3.92;1.30;;;;;;;25.39;44.19;100853.63;4881791;29;20052;-70
2022/07/22 03:33:05;;;;;;;3.15;1.30;;;;;;;25.28;44.80;100852.16;4886944;29;20494;-72
2022/07/22 03:35:34;;;;;;;4.00;1.67;;;;;;;25.26;44.69;100853.13;4891196;29;20049;-70
2022/07/22 03:38:04;;;;;;;4.25;1.55;;;;;;;25.22;45.29;100862.94;4888011;29;20517;-69
2022/07/22 03:40:33;;;;;;;7.55;1.80;;;;;;;25.17;45.80;100858.66;4883543;29;20053;-72
2022/07/22 03:43:01;;;;;;;5.68;1.67;;;;;;;25.07;44.53;100868.66;4890079;29;20426;-70
2022/07/22 03:45:30;;;;;;;4.53;1.45;;;;;;;24.92;45.26;100869.94;4899548;29;20060;-70
2022/07/22 03:47:59;;;;;;;3.35;1.48;;;;;;;24.77;45.88;100875.69;4891086;29;20048;-70
2022/07/22 03:50:28;;;;;;;5.03;1.38;;;;;;;24.59;45.64;100872.59;4889395;29;20052;-71
2022/07/22 03:52:56;;;;;;;3.40;1.60;;;;;;;24.43;46.40;100868.59;4889376;29;20301;-71
2022/07/22 03:55:26;;;;;;;3.75;1.75;;;;;;;24.28;47.04;100877.81;4889932;29;20726;-70
2022/07/22 03:57:55;;;;;;;2.72;1.30;;;;;;;24.03;47.67;100872.28;4885765;29;20139;-71
2022/07/22 04:00:23;;;;;;;5.82;1.48;;;;;;;23.90;48.01;100881.41;4887142;29;20626;-70
2022/07/22 04:02:52;;;;;;;4.38;1.58;;;;;;;23.74;47.86;100884.38;4881024;29;20048;-71
2022/07/22 04:05:21;;;;;;;4.10;1.67;;;;;;;23.65;49.08;100896.91;4884967;29;20474;-69
2022/07/22 04:07:49;;;;;;;7.40;1.40;;;;;;;23.61;48.08;100896.09;4885581;29;20491;-69
2022/07/22 04:10:18;;;;;;;4.25;1.58;;;;;;;23.55;48.30;100906.81;4889904;28;20528;-69
2022/07/22 04:12:48;;;;;;;2.70;1.30;;;;;;;23.40;48.44;100906.22;4888307;29;20070;-69
2022/07/22 04:15:16;;;;;;;6.28;2.65;;;;;;;23.28;49.11;100908.28;4891263;29;20621;-70
2022/07/22 04:17:45;;;;;;;2.80;1.40;;;;;;;23.15;49.61;100913.78;4887653;29;20048;-69
2022/07/22 04:20:14;;;;;;;3.95;1.58;;;;;;;23.00;49.02;100919.38;4894924;29;20052;-69
2022/07/22 04:22:42;;;;;;;4.88;1.88;;;;;;;22.90;49.74;100923.03;4893154;29;20482;-70
2022/07/22 04:25:11;;;;;;;6.50;1.58;;;;;;;22.78;50.36;100919.72;4890869;29;20513;-68
2022/07/22 04:27:39;;;;;;;7.45;1.70;;;;;;;22.67;50.51;100926.97;4893793;29;20108;-69
2022/07/22 04:30:11;;;;;;;4.13;1.63;;;;;;;22.51;50.26;100936.91;4893189;29;20119;-69
2022/07/22 04:32:40;;;;;;;2.03;1.15;;;;;;;22.44;50.81;100931.78;4892674;29;20104;-68
2022/07/22 04:35:09;;;;;;;6.10;1.30;;;;;;;22.36;50.89;100938.06;4892234;29;20159;-69
2022/07/22 04:37:38;;;;;;;4.45;1.52;;;;;;;22.26;51.61;100946.13;4894447;29;20052;-70
2022/07/22 04:40:08;;;;;;;4.82;1.58;;;;;;;22.14;52.21;100949.78;4888284;29;20348;-69
2022/07/22 04:42:36;;;;;;;4.65;1.40;;;;;;;22.03;51.89;100960.47;4889319;29;20563;-69
2022/07/22 04:45:05;;;;;;;5.38;1.42;;;;;;;21.86;52.40;100951.97;4892571;29;20585;-68
2022/07/22 04:47:36;;;;;;;4.60;1.50;;;;;;;21.80;53.65;100958.19;4892225;29;20057;-69
2022/07/22 04:50:04;;;;;;;2.53;1.40;;;;;;;21.70;53.58;100961.84;4892698;29;20238;-69
2022/07/22 04:52:33;;;;;;;5.95;1.38;;;;;;;21.59;53.38;100963.75;4891587;29;20471;-69
2022/07/22 04:55:02;;;;;;;3.10;1.52;;;;;;;21.47;53.50;100962.13;4892630;29;20458;-69
2022/07/22 04:57:31;;;;;;;3.53;1.55;;;;;;;21.37;53.57;100971.84;4890276;29;20064;-69
2022/07/22 04:59:59;;;;;;;3.25;1.17;;;;;;;21.27;53.63;100978.97;4891569;29;20069;-69
2022/07/22 05:02:28;;;;;;;5.93;1.90;;;;;;;21.16;54.05;100977.34;4904382;29;20505;-68
2022/07/22 05:04:58;;;;;;;2.00;1.20;;;;;;;21.03;54.66;100989.78;4893749;29;20111;-68
2022/07/22 05:07:27;;;;;;;3.65;1.42;;;;;;;20.90;54.50;100983.75;4895270;29;20083;-70
2022/07/22 05:09:55;;;;;;;3.25;1.33;;;;;;;20.80;54.72;100987.34;4885651;29;20056;-69
2022/07/22 05:12:24;;;;;;;4.75;1.33;;;;;;;20.74;54.77;100990.91;4887062;29;20155;-70
2022/07/22 05:14:52;;;;;;;2.28;1.30;;;;;;;20.66;56.33;100993.63;4894474;29;20048;-69
2022/07/22 05:17:21;;;;;;;5.25;1.73;;;;;;;20.54;55.28;100996.28;4886378;29;20057;-69
2022/07/22 05:19:49;;;;;;;4.53;1.20;;;;;;;20.46;55.71;101000.75;4890541;29;20135;-71
2022/07/22 05:22:19;;;;;;;3.33;1.35;;;;;;;20.38;56.51;101005.19;4888859;29;20089;-70
2022/07/22 05:24:48;;;;;;;3.00;1.85;;;;;;;20.24;56.18;101008.75;4887553;29;20052;-70
2022/07/22 05:27:16;;;;;;;3.50;1.48;;;;;;;20.07;56.21;101011.50;4890763;29;20147;-71
2022/07/22 05:29:45;;;;;;;4.18;1.40;;;;;;;19.86;57.00;101017.75;4889379;29;20048;-70
2022/07/22 05:32:13;;;;;;;4.00;1.30;;;;;;;19.71;57.42;101023.06;4890803;29;20052;-72
2022/07/22 05:34:42;;;;;;;2.72;1.30;;;;;;;19.46;58.28;101022.22;4889504;29;20053;-72
2022/07/22 05:37:10;;;;;;;3.92;1.40;;;;;;;19.39;58.27;101026.63;4891012;29;20080;-70
2022/07/22 05:39:40;;;;;;;6.47;1.67;;;;;;;19.30;58.86;101024.03;4890845;29;20055;-69
2022/07/22 05:42:09;;;;;;;1.75;1.10;;;;;;;19.21;59.53;101027.53;4886886;29;20496;-70
2022/07/22 05:44:37;;;;;;;4.18;2.33;;;;;;;19.12;59.21;101031.91;4892539;29;20059;-69
2022/07/22 05:47:06;;;;;;;4.78;1.50;;;;;;;19.09;61.05;101037.19;4885581;29;20057;-68
2022/07/22 05:49:35;;;;;;;2.08;1.20;;;;;;;19.00;60.12;101036.31;4892396;29;20065;-70
2022/07/22 05:52:03;;;;;;;3.78;1.40;;;;;;;18.92;60.18;101040.69;4886018;29;20506;-69
2022/07/22 05:54:32;;;;;;;3.55;1.20;;;;;;;18.86;60.82;101038.06;4890540;29;20467;-68
2022/07/22 05:57:02;;;;;;;3.63;1.20;;;;;;;18.82;60.98;101037.16;4886220;29;20053;-71
2022/07/22 05:59:30;;;;;;;3.85;1.30;;;;;;;18.78;61.00;101037.16;4893951;29;20844;-69
2022/07/22 06:01:59;;;;;;;2.15;1.10;;;;;;;18.75;61.19;101039.78;4879445;29;20452;-69
2022/07/22 06:04:28;;;;;;;3.60;1.42;;;;;;;18.71;61.34;101051.13;4891389;29;20467;-68
2022/07/22 06:06:56;;;;;;;3.15;1.30;;;;;;;18.70;61.38;101062.50;4881533;29;20542;-70
2022/07/22 06:09:25;;;;;;;2.60;1.40;;;;;;;18.57;61.59;101058.97;4882994;29;20135;-70
2022/07/22 06:11:53;;;;;;;3.03;1.67;;;;;;;18.57;61.87;101062.47;4882638;29;20139;-72
2022/07/22 06:14:23;;;;;;;2.90;1.33;;;;;;;18.49;62.06;101061.59;4885134;29;20049;-70
2022/07/22 06:16:52;;;;;;;2.55;1.48;;;;;;;18.45;62.61;101067.69;4889082;29;20527;-70
2022/07/22 06:19:20;;;;;;;2.10;1.10;;;;;;;18.41;62.48;101073.78;4889470;29;20064;-70
2022/07/22 06:21:49;;;;;;;2.47;1.33;;;;;;;18.40;63.11;101072.06;4891098;29;20055;-72
2022/07/22 06:24:17;;;;;;;2.60;1.35;;;;;;;18.40;63.46;101082.53;4885448;29;20052;-70
2022/07/22 06:26:46;;;;;;;2.22;1.02;;;;;;;18.38;63.19;101068.56;4890397;29;20056;-69
2022/07/22 06:29:14;;;;;;;3.08;1.05;;;;;;;18.35;63.14;101077.28;4891836;29;20403;-69
2022/07/22 06:31:45;;;;;;;2.72;1.10;;;;;;;18.31;63.19;101079.88;4885212;29;20055;-68
2022/07/22 06:34:13;;;;;;;3.00;1.40;;;;;;;18.28;63.28;101085.09;4879408;29;20465;-71
2022/07/22 06:36:42;;;;;;;1.88;1.20;;;;;;;18.21;63.49;101079.00;4880959;29;20138;-70
2022/07/22 06:39:10;;;;;;;1.88;0.90;;;;;;;18.16;63.52;101078.09;4889018;29;20049;-69
2022/07/22 06:41:39;;;;;;;3.05;1.00;;;;;;;18.14;64.15;101079.81;4884331;29;20592;-69
2022/07/22 06:44:07;;;;;;;3.17;0.98;;;;;;;18.09;64.15;101082.41;4884001;29;20052;-69
2022/07/22 06:46:36;;;;;;;2.75;1.05;;;;;;;18.02;64.27;101083.25;4891259;29;20052;-69
2022/07/22 06:49:06;;;;;;;1.67;1.00;;;;;;;18.04;64.68;101083.28;4889279;29;20044;-69
2022/07/22 06:51:35;;;;;;;1.65;1.00;;;;;;;18.05;64.73;101083.31;4886576;29;20139;-70
2022/07/22 06:54:03;;;;;;;2.85;1.20;;;;;;;18.05;64.52;101088.53;4892007;29;20055;-70
2022/07/22 06:56:32;;;;;;;1.27;0.80;;;;;;;18.04;64.95;101088.53;4877810;29;20113;-69
2022/07/22 06:59:00;;;;;;;2.75;1.25;;;;;;;18.04;65.24;101094.63;4889522;29;20064;-69
2022/07/22 07:01:29;;;;;;;1.88;0.93;;;;;;;18.02;65.29;101090.25;4881568;29;20122;-68
2022/07/22 07:03:57;;;;;;;2.08;1.00;;;;;;;18.00;65.47;101095.47;4892926;29;20064;-69
2022/07/22 07:06:28;;;;;;;2.15;0.90;;;;;;;17.89;64.97;101091.94;4895901;29;20052;-69
2022/07/22 07:08:57;;;;;;;3.53;1.20;;;;;;;17.83;65.45;101100.63;4890687;29;20112;-68
2022/07/22 07:11:26;;;;;;;3.92;1.33;;;;;;;17.77;65.37;101104.09;4891278;28;20073;-67
2022/07/22 07:13:54;;;;;;;2.50;1.15;;;;;;;17.76;65.35;101104.06;4890229;29;20056;-67
2022/07/22 07:16:23;;;;;;;4.60;1.13;;;;;;;17.71;66.41;101104.03;4889865;29;20112;-68
2022/07/22 07:18:51;;;;;;;2.90;1.23;;;;;;;17.65;65.98;101106.59;4889820;29;20490;-69
2022/07/22 07:21:20;;;;;;;3.50;1.10;;;;;;;17.61;66.75;101117.91;4888046;29;20056;-69
2022/07/22 07:23:50;;;;;;;3.22;1.15;;;;;;;17.60;66.53;101116.19;4891847;29;20052;-68
2022/07/22 07:26:18;;;;;;;2.25;1.27;;;;;;;17.59;66.35;101123.16;4891013;29;20498;-68
2022/07/22 07:28:47;;;;;;;1.70;0.90;;;;;;;17.57;66.68;101113.56;4885292;29;20056;-68
2022/07/22 07:31:15;;;;;;;2.45;1.17;;;;;;;17.57;67.19;101122.28;4880058;29;20525;-68
2022/07/22 07:33:44;;;;;;;2.83;1.20;;;;;;;17.57;66.70;101135.34;4885342;29;20049;-68
2022/07/22 07:36:12;;;;;;;2.50;0.90;;;;;;;17.55;66.95;101126.63;4886433;29;20052;-67
2022/07/22 07:38:41;;;;;;;2.05;1.08;;;;;;;17.51;66.97;101131.81;4890054;29;20056;-68
2022/07/22 07:41:12;;;;;;;3.50;0.93;;;;;;;17.50;67.05;101137.91;4885966;29;20151;-68
2022/07/22 07:43:40;;;;;;;1.40;0.90;;;;;;;17.46;67.39;101130.91;4889748;29;20463;-68
2022/07/22 07:46:09;;;;;;;3.05;1.20;;;;;;;17.44;67.46;101135.25;4888444;29;20044;-69
2022/07/22 07:49:18;;;;;;;1.75;1.02;;;;;;;17.42;68.15;101139.59;4890939;29;20048;-70
2022/07/22 07:51:47;;;;;;;1.92;1.25;;;;;;;17.37;68.39;101137.81;4890469;29;20191;-69
2022/07/22 07:54:15;;;;;;;2.13;0.90;;;;;;;17.35;68.67;101141.28;4898984;29;20574;-69
2022/07/22 07:56:45;;;;;;;1.88;1.02;;;;;;;17.30;68.18;101146.47;4895853;29;20072;-69
2022/07/22 07:59:16;;;;;;;2.92;1.25;;;;;;;17.27;68.23;101150.81;4894203;29;20052;-69
2022/07/22 08:01:45;;;;;;;2.40;1.27;;;;;;;17.21;69.09;101150.78;4892635;29;20459;-70
2022/07/22 08:04:13;;;;;;;2.35;0.90;;;;;;;17.19;68.70;101152.50;4896168;29;20075;-68
2022/07/22 08:06:42;;;;;;;3.15;1.48;;;;;;;17.15;69.21;101159.41;4894790;29;20104;-69
2022/07/22 08:09:11;;;;;;;3.17;1.17;;;;;;;17.12;69.55;101169.88;4890638;29;20499;-68
2022/07/22 08:11:40;;;;;;;3.97;1.15;;;;;;;17.06;69.49;101159.34;4895267;28;20066;-67
2022/07/22 08:14:10;;;;;;;2.80;1.08;;;;;;;17.03;68.97;101164.53;4891403;29;20470;-67
2022/07/22 08:16:38;;;;;;;1.52;0.90;;;;;;;16.99;69.28;101165.38;4894201;29;20060;-68
2022/07/22 08:19:09;;;;;;;3.83;1.30;;;;;;;16.94;69.97;101160.09;4892558;29;20056;-68
2022/07/22 08:21:37;;;;;;;3.03;0.80;;;;;;;16.87;70.12;101159.16;4894292;29;20116;-68
2022/07/22 08:24:06;;;;;;;8.65;1.30;;;;;;;16.79;70.80;101155.59;4893701;29;20052;-68
2022/07/22 08:26:35;;;;;;;1.70;0.80;;;;;;;16.72;71.28;101156.34;4889648;29;20056;-68
2022/07/22 08:29:07;;;;;;;2.58;1.10;;;;;;;16.70;71.36;101164.19;4893056;29;20064;-68
2022/07/22 08:31:37;;;;;;;;;;;;;;;16.69;71.68;101162.41;4893682;29;20051;-68
2022/07/22 08:34:06;;;;;;;2.00;1.20;;;;;;;16.68;71.57;101165.03;4889133;29;20521;-68
2022/07/22 08:36:35;;;;;;;3.80;1.00;;;;;;;16.66;72.15;101172.84;4891188;29;20135;-67
2022/07/22 08:39:04;;;;;;;1.02;0.80;;;;;;;16.67;72.46;101176.31;4890538;29;20335;-68
2022/07/22 08:41:37;;;;;;;1.70;0.90;;;;;;;16.64;72.41;101178.91;4895197;29;20044;-68
2022/07/22 08:44:09;;;;;;;3.65;1.25;;;;;;;16.62;72.26;101185.84;4894836;29;20577;-68
2022/07/22 08:46:39;;;;;;;;;;;;;;;16.61;72.82;101176.28;4896504;29;20045;-67
2022/07/22 08:49:08;;;;;;;0.75;0.60;;;;;;;16.59;72.80;101172.78;4891979;29;19935;-68
2022/07/22 08:51:36;;;;;;;2.03;0.95;;;;;;;16.58;72.58;101178.84;4891940;29;20052;-67
2022/07/22 08:54:05;;;;;;;1.25;0.80;;;;;;;16.57;72.90;101187.53;4892708;29;20044;-68
2022/07/22 08:56:33;;;;;;;2.30;1.05;;;;;;;16.54;72.77;101186.66;4891339;29;20049;-68
2022/07/22 08:59:02;;;;;;;2.85;0.95;;;;;;;16.47;72.35;101187.44;4891378;29;20056;-68
2022/07/22 09:01:31;;;;;;;1.20;0.73;;;;;;;16.48;72.66;101198.75;4889337;29;20102;-68
2022/07/22 09:04:01;;;;;;;1.65;0.98;;;;;;;16.48;73.10;101194.41;4891435;29;20052;-68
2022/07/22 09:06:33;;;;;;;1.90;1.00;;;;;;;16.48;73.62;101189.19;4892183;29;20108;-68
2022/07/22 09:09:03;;;;;;;1.20;1.00;;;;;;;16.48;73.08;101190.91;4889874;29;20399;-68
2022/07/22 09:11:32;;;;;;;3.72;0.98;;;;;;;16.50;72.88;101192.69;4895062;29;20483;-67
2022/07/22 09:14:01;;;;;;;2.50;1.15;;;;;;;16.50;72.82;101191.81;4890977;29;20503;-68
2022/07/22 09:16:44;;;;;;;1.73;0.90;;;;;;;16.51;73.42;101194.44;4890827;29;20052;-67
2022/07/22 09:19:16;;;;;;;2.42;0.82;;;;;;;16.52;73.09;101190.97;4890257;29;20466;-67
2022/07/22 09:21:49;;;;;;;1.67;0.80;;;;;;;16.53;73.44;101197.06;4894545;29;20683;-68
2022/07/22 09:24:32;;;;;;;1.05;0.65;;;;;;;16.52;73.09;101201.44;4891720;29;20135;-68
2022/07/22 09:27:01;;;;;;;2.50;0.98;;;;;;;16.51;73.10;101197.03;4896838;29;20063;-67
2022/07/22 09:29:29;;;;;;;2.47;0.70;;;;;;;16.51;73.03;101204.00;4890191;29;20053;-69
2022/07/22 09:31:58;;;;;;;0.82;0.63;;;;;;;16.49;73.68;101205.72;4893671;29;20622;-69
2022/07/22 09:34:34;;;;;;;1.77;0.60;;;;;;;16.43;74.27;101206.53;4893170;29;20593;-69
2022/07/22 09:37:03;;;;;;;2.65;0.88;;;;;;;16.39;74.54;101204.72;4897638;29;20052;-69
2022/07/22 09:39:33;;;;;;;1.88;0.70;;;;;;;16.39;74.44;101207.34;4894516;29;20169;-68
2022/07/22 09:42:02;;;;;;;1.73;0.88;;;;;;;16.40;74.02;101210.84;4886673;29;20161;-68
2022/07/22 09:44:31;;;;;;;2.55;0.85;;;;;;;16.38;73.92;101217.75;4889065;29;20510;-68
2022/07/22 09:46:59;;;;;;;1.98;0.90;;;;;;;16.36;74.87;101216.91;4893073;29;20045;-68
2022/07/22 09:49:39;;;;;;;1.15;0.82;;;;;;;16.36;74.95;101225.59;4894251;29;20052;-68
2022/07/22 09:52:17;;;;;;;1.73;0.80;;;;;;;16.36;74.78;101220.38;4892273;29;20748;-68
2022/07/22 09:54:46;;;;;;;1.00;0.88;;;;;;;16.36;75.11;101219.50;4892339;29;20056;-68
2022/07/22 09:57:15;;;;;;;1.02;0.60;;;;;;;16.33;74.08;101209.88;4893658;29;20153;-69
2022/07/22 09:59:43;;;;;;;4.95;1.33;;;;;;;16.32;74.27;101215.97;4888932;29;20567;-68
2022/07/22 10:02:14;;;;;;;2.28;1.00;;;;;;;16.30;74.76;101215.06;4894482;29;20104;-68
2022/07/22 10:04:47;;;;;;;1.98;0.65;;;;;;;16.28;75.26;101216.78;4894189;29;20044;-70
2022/07/22 10:07:17;;;;;;;3.30;0.82;;;;;;;16.26;74.66;101218.47;4893495;29;20045;-68
2022/07/22 10:09:47;;;;;;;1.40;0.80;;;;;;;16.23;74.73;101218.44;4886053;29;20048;-69
2022/07/22 10:12:24;;;;;;;1.50;0.65;;;;;;;16.18;75.61;101214.91;4893183;28;20506;-69
2022/07/22 10:14:53;;;;;;;2.33;0.70;;;;;;;16.14;75.06;101224.41;4890277;29;20052;-69
2022/07/22 10:17:21;;;;;;;1.13;0.57;;;;;;;16.11;75.09;101220.03;4889734;29;20056;-68
2022/07/22 10:19:52;;;;;;;1.33;0.68;;;;;;;16.09;75.53;101226.97;4887633;29;20108;-68
2022/07/22 10:22:57;;;;;;;3.05;0.73;;;;;;;16.06;75.53;101224.31;4898213;29;20056;-68
2022/07/22 10:25:27;;;;;;;2.17;0.80;;;;;;;15.96;76.84;101229.38;4811355;29;20592;-68
2022/07/22 10:27:58;;;;;;;2.20;0.85;;;;;;;15.84;77.38;101241.38;4815859;29;20057;-68
2022/07/22 10:30:28;;;;;;;1.83;0.70;;;;;;;15.74;78.11;101238.63;4853061;29;20064;-68
2022/07/22 10:33:09;;;;;;;0.98;0.57;;;;;;;15.68;78.26;101234.13;4896046;29;20510;-67
2022/07/22 10:35:55;;;;;;;1.38;0.60;;;;;;;15.70;78.01;101237.66;4893543;29;20049;-68
2022/07/22 10:38:24;;;;;;;0.60;0.50;;;;;;;15.68;77.91;101240.22;4890858;29;20438;-68
2022/07/22 10:40:55;;;;;;;3.35;0.63;;;;;;;15.65;78.65;101240.19;4888801;29;20104;-68
2022/07/22 10:43:26;;;;;;;0.60;0.55;;;;;;;15.58;79.51;101243.53;4887824;29;20064;-69
2022/07/22 10:45:56;;;;;;;2.00;0.68;;;;;;;15.47;79.99;101235.53;4891626;29;20139;-67
2022/07/22 10:48:45;;;;;;;2.28;0.60;;;;;;;15.45;79.35;101250.25;4891137;29;20514;-67
2022/07/22 10:51:17;;;;;;;3.50;0.90;;;;;;;15.46;78.84;101248.53;4890851;29;20080;-67
2022/07/22 10:53:54;;;;;;;1.13;0.82;;;;;;;15.47;78.75;101260.72;4889322;29;20553;-69
2022/07/22 10:56:29;;;;;;;2.50;1.00;;;;;;;15.47;78.66;101250.31;4892691;29;20125;-67
2022/07/22 10:59:10;;;;;;;2.25;0.68;;;;;;;15.47;79.37;101239.88;4883543;29;20151;-68
2022/07/22 11:01:40;;;;;;;1.60;0.80;;;;;;;15.36;78.99;101230.97;4881138;29;20135;-67
2022/07/22 11:04:16;;;;;;;2.13;0.85;;;;;;;15.38;78.66;101231.88;4886049;29;20049;-67
2022/07/22 11:06:47;;;;;;;2.28;0.57;;;;;;;15.40;79.14;101254.53;4889777;29;20044;-68
2022/07/22 11:09:17;;;;;;;1.15;0.60;;;;;;;15.36;78.98;101246.63;4885476;29;20080;-67
2022/07/22 11:11:56;;;;;;;0.95;0.65;;;;;;;15.34;79.17;101245.72;4895003;28;20075;-68
2022/07/22 11:14:28;;;;;;;1.63;0.73;;;;;;;15.33;79.03;101250.06;4889521;29;20546;-68
2022/07/22 11:16:58;;;;;;;1.55;0.90;;;;;;;15.32;79.27;101250.91;4883647;29;20049;-68
2022/07/22 11:19:31;;;;;;;3.17;0.98;;;;;;;15.32;79.16;101252.63;4888206;29;20546;-68
2022/07/22 11:22:04;;;;;;;3.42;1.10;;;;;;;15.31;78.60;101258.72;4890949;29;20163;-68
2022/07/22 11:24:33;;;;;;;3.30;0.98;;;;;;;15.28;79.13;101260.41;4892184;29;20048;-67
2022/07/22 11:27:02;;;;;;;1.42;0.70;;;;;;;15.26;79.90;101251.69;4888993;29;20040;-69
2022/07/22 11:29:33;;;;;;;2.30;1.02;;;;;;;15.26;79.92;101251.69;4886644;29;20049;-68
2022/07/22 11:32:03;;;;;;;2.42;0.95;;;;;;;15.25;80.05;101251.63;4891018;29;20063;-68
2022/07/22 11:34:32;;;;;;;2.15;0.95;;;;;;;15.21;80.13;101247.22;4887875;29;20048;-68
2022/07/22 11:37:02;;;;;;;2.63;0.85;;;;;;;15.14;81.28;101251.47;4888129;29;20498;-69
2022/07/22 11:39:31;;;;;;;2.67;0.93;;;;;;;15.05;81.80;101254.75;4892851;29;20067;-69